createdAt,value
2018-11-05T00:00:45.130Z,8.18
2018-11-05T00:03:14.295Z,8.18
2018-11-05T00:05:43.982Z,8.20
2018-11-05T00:08:12.919Z,8.22
2018-11-05T00:10:42.387Z,8.21
2018-11-05T00:13:11.300Z,8.21
2018-11-05T00:15:40.139Z,8.16
2018-11-05T00:18:09.086Z,8.09
2018-11-05T00:20:37.959Z,8.06
2018-11-05T00:23:06.900Z,8.03
2018-11-05T00:25:35.770Z,7.98
2018-11-05T00:28:05.176Z,7.95
2018-11-05T00:30:34.102Z,7.95
2018-11-05T00:33:03.016Z,7.96
2018-11-05T00:35:32.424Z,8.00
2018-11-05T00:38:01.223Z,8.04
2018-11-05T00:40:30.826Z,8.05
2018-11-05T00:43:00.080Z,8.06
2018-11-05T00:45:29.460Z,8.05
2018-11-05T00:47:59.278Z,8.06
2018-11-05T00:50:29.081Z,8.05
2018-11-05T00:52:58.483Z,8.02
2018-11-05T00:55:27.417Z,8.09
2018-11-05T00:57:56.428Z,8.12
2018-11-05T01:00:26.039Z,8.09
2018-11-05T01:02:55.238Z,8.09
2018-11-05T01:05:24.722Z,8.06
2018-11-05T01:07:56.231Z,8.04
2018-11-05T01:10:25.868Z,8.02
2018-11-05T01:12:55.017Z,8.00
2018-11-05T01:15:56.008Z,8.00
2018-11-05T01:18:25.310Z,7.99
2018-11-05T01:20:55.647Z,7.98
2018-11-05T01:23:25.113Z,7.99
2018-11-05T01:25:54.510Z,7.98
2018-11-05T01:28:24.618Z,7.97
2018-11-05T01:30:54.504Z,7.96
2018-11-05T01:33:24.638Z,8.01
2018-11-05T01:35:54.653Z,8.04
2018-11-05T01:38:25.631Z,8.04
2018-11-05T01:40:54.817Z,8.04
2018-11-05T01:43:24.681Z,8.04
2018-11-05T01:45:54.527Z,8.03
2018-11-05T01:48:24.611Z,8.00
2018-11-05T01:50:55.449Z,8.00
2018-11-05T01:53:25.568Z,8.02
2018-11-05T01:55:54.571Z,7.99
2018-11-05T01:58:24.158Z,8.01
2018-11-05T02:00:54.242Z,8.03
2018-11-05T02:03:24.102Z,8.03
2018-11-05T02:05:54.147Z,8.04
2018-11-05T02:08:23.621Z,8.05
2018-11-05T02:10:53.657Z,8.07
2018-11-05T02:13:23.780Z,8.11
2018-11-05T02:15:53.648Z,8.13
2018-11-05T02:18:23.551Z,8.15
2018-11-05T02:20:53.687Z,8.14
2018-11-05T02:23:23.447Z,8.13
2018-11-05T02:25:53.292Z,8.13
2018-11-05T02:28:23.444Z,8.11
2018-11-05T02:30:53.397Z,8.05
2018-11-05T02:33:23.774Z,8.04
2018-11-05T02:35:53.717Z,8.06
2018-11-05T02:38:23.178Z,8.06
2018-11-05T02:40:52.478Z,8.05
2018-11-05T02:43:22.494Z,8.07
2018-11-05T02:45:51.688Z,8.06
2018-11-05T02:48:22.318Z,8.05
2018-11-05T02:50:52.463Z,8.03
2018-11-05T02:56:54.579Z,8.07
2018-11-05T02:59:24.079Z,8.05
2018-11-05T03:01:54.809Z,8.00
2018-11-05T03:04:24.949Z,7.98
2018-11-05T03:06:54.448Z,7.97
2018-11-05T03:09:24.511Z,7.98
2018-11-05T03:11:55.019Z,7.99
2018-11-05T03:14:24.953Z,7.97
2018-11-05T03:16:54.256Z,7.95
2018-11-05T03:19:24.841Z,7.95
2018-11-05T03:21:55.721Z,7.94
2018-11-05T03:24:24.876Z,7.92
2018-11-05T03:26:55.042Z,7.88
2018-11-05T03:29:25.040Z,7.89
2018-11-05T03:31:54.656Z,7.88
2018-11-05T03:34:24.619Z,7.87
2018-11-05T03:36:54.400Z,7.86
2018-11-05T03:39:24.637Z,7.83
2018-11-05T03:41:54.648Z,7.82
2018-11-05T03:44:24.260Z,7.85
2018-11-05T03:46:53.678Z,7.86
2018-11-05T03:49:23.672Z,7.86
2018-11-05T03:51:53.638Z,7.87
2018-11-05T03:54:23.024Z,7.87
2018-11-05T03:56:52.308Z,7.87
2018-11-05T03:59:21.920Z,7.89
2018-11-05T04:01:51.788Z,7.90
2018-11-05T04:04:21.600Z,7.94
2018-11-05T04:06:51.009Z,7.93
2018-11-05T04:09:19.971Z,7.94
2018-11-05T04:11:49.625Z,7.91
2018-11-05T04:14:19.029Z,7.97
2018-11-05T04:16:47.993Z,7.99
2018-11-05T04:19:16.961Z,8.02
2018-11-05T04:21:46.423Z,8.02
2018-11-05T04:24:16.232Z,8.04
2018-11-05T04:26:46.394Z,8.03
2018-11-05T04:29:15.354Z,8.04
2018-11-05T04:31:45.215Z,8.04
2018-11-05T04:34:14.477Z,8.03
2018-11-05T04:36:45.189Z,8.03
2018-11-05T04:39:15.843Z,8.06
2018-11-05T04:41:45.368Z,8.06
2018-11-05T04:44:14.244Z,8.05
2018-11-05T04:46:43.225Z,8.04
2018-11-05T04:49:13.020Z,8.02
2018-11-05T04:51:43.287Z,7.99
2018-11-05T04:54:12.139Z,7.96
2018-11-05T04:56:41.106Z,7.97
2018-11-05T04:59:10.150Z,8.00
2018-11-05T05:01:43.986Z,8.02
2018-11-05T05:04:14.410Z,8.04
2018-11-05T05:06:43.402Z,8.04
2018-11-05T05:09:13.291Z,8.04
2018-11-05T05:11:42.772Z,8.04
2018-11-05T05:14:11.871Z,8.04
2018-11-05T05:16:40.829Z,8.07
2018-11-05T05:19:09.912Z,8.07
2018-11-05T05:21:38.750Z,8.10
2018-11-05T05:24:07.797Z,8.12
2018-11-05T05:26:36.718Z,8.11
2018-11-05T05:29:06.654Z,8.09
2018-11-05T05:31:36.266Z,8.09
2018-11-05T05:34:05.622Z,8.09
2018-11-05T05:36:34.531Z,8.11
2018-11-05T05:39:03.655Z,8.09
2018-11-05T05:41:32.591Z,8.07
2018-11-05T05:44:02.084Z,8.06
2018-11-05T05:46:31.007Z,8.09
2018-11-05T05:49:00.731Z,8.06
2018-11-05T05:51:30.184Z,8.10
2018-11-05T05:53:59.262Z,8.11
2018-11-05T05:56:28.249Z,8.17
2018-11-05T05:58:57.221Z,8.17
2018-11-05T06:01:26.672Z,8.19
2018-11-05T06:03:56.215Z,8.20
2018-11-05T06:06:25.417Z,8.19
2018-11-05T06:08:54.550Z,8.17
2018-11-05T06:11:24.665Z,8.17
2018-11-05T06:16:38.166Z,8.16
2018-11-05T06:19:07.569Z,8.17
2018-11-05T06:21:36.688Z,8.17
2018-11-05T06:24:05.773Z,8.16
2018-11-05T06:26:35.396Z,8.19
2018-11-05T06:29:04.311Z,8.17
2018-11-05T06:31:33.662Z,8.18
2018-11-05T06:34:02.631Z,8.19
2018-11-05T06:36:32.103Z,8.20
2018-11-05T06:39:00.957Z,8.20
2018-11-05T06:41:30.215Z,8.22
2018-11-05T06:43:59.888Z,8.25
2018-11-05T06:46:28.881Z,8.26
2018-11-05T06:48:58.676Z,8.25
2018-11-05T06:51:27.981Z,8.27
2018-11-05T06:53:56.948Z,8.28
2018-11-05T06:56:26.062Z,8.29
2018-11-05T06:58:55.216Z,8.31
2018-11-05T07:04:57.553Z,8.40
2018-11-05T07:07:26.436Z,8.38
2018-11-05T07:09:55.809Z,8.41
2018-11-05T07:12:25.510Z,8.40
2018-11-05T07:14:54.469Z,8.44
2018-11-05T07:17:24.291Z,8.46
2018-11-05T07:19:54.282Z,8.47
2018-11-05T07:22:28.420Z,8.48
2018-11-05T07:24:57.902Z,8.46
2018-11-05T07:27:26.875Z,8.45
2018-11-05T07:29:55.868Z,8.45
2018-11-05T07:32:25.631Z,8.41
2018-11-05T07:34:54.480Z,8.37
2018-11-05T07:37:28.162Z,8.36
2018-11-05T07:39:56.953Z,8.33
2018-11-05T07:42:26.785Z,8.32
2018-11-05T07:44:56.398Z,8.31
2018-11-05T07:47:25.495Z,8.30
2018-11-05T07:49:54.953Z,8.34
2018-11-05T07:52:27.158Z,8.34
2018-11-05T07:54:55.999Z,8.31
2018-11-05T07:57:25.073Z,8.30
2018-11-05T07:59:55.015Z,8.30
2018-11-05T08:02:24.368Z,8.31
2018-11-05T08:04:54.430Z,8.29
2018-11-05T08:07:24.119Z,8.29
2018-11-05T08:09:53.499Z,8.29
2018-11-05T08:12:23.541Z,8.28
2018-11-05T08:14:53.580Z,8.29
2018-11-05T08:20:05.067Z,8.33
2018-11-05T08:22:39.293Z,8.35
2018-11-05T08:25:08.554Z,8.41
2018-11-05T08:27:37.779Z,8.43
2018-11-05T08:30:09.240Z,8.49
2018-11-05T08:32:38.916Z,8.54
2018-11-05T08:35:08.689Z,8.58
2018-11-05T08:37:43.388Z,8.62
2018-11-05T08:40:14.655Z,8.61
2018-11-05T08:42:44.622Z,8.64
2018-11-05T08:45:14.630Z,8.69
2018-11-05T08:47:43.652Z,8.71
2018-11-05T08:50:15.309Z,8.72
2018-11-05T08:52:45.845Z,8.74
2018-11-05T08:55:16.630Z,8.78
2018-11-05T08:57:45.729Z,8.82
2018-11-05T09:00:21.883Z,8.86
2018-11-05T09:02:51.547Z,8.89
2018-11-05T09:05:21.488Z,8.88
2018-11-05T09:07:51.573Z,8.87
2018-11-05T09:10:22.579Z,8.88
2018-11-05T09:12:53.151Z,8.86
2018-11-05T09:15:23.014Z,8.88
2018-11-05T09:17:53.723Z,8.88
2018-11-05T09:20:23.470Z,8.90
2018-11-05T09:22:52.707Z,8.95
2018-11-05T09:25:21.863Z,9.00
2018-11-05T09:27:52.527Z,9.05
2018-11-05T09:30:22.931Z,9.09
2018-11-05T09:32:52.720Z,9.09
2018-11-05T09:35:22.468Z,9.10
2018-11-05T09:37:51.480Z,9.13
2018-11-05T09:40:22.578Z,9.12
2018-11-05T09:42:52.550Z,9.14
2018-11-05T09:45:25.610Z,9.14
2018-11-05T09:47:55.295Z,9.13
2018-11-05T09:50:24.861Z,9.18
2018-11-05T09:52:54.769Z,9.19
2018-11-05T09:55:24.014Z,9.25
2018-11-05T09:57:53.459Z,9.26
2018-11-05T10:00:25.897Z,9.27
2018-11-05T10:02:57.067Z,9.31
2018-11-05T10:05:27.199Z,9.34
2018-11-05T10:07:56.053Z,9.36
2018-11-05T10:10:25.802Z,9.42
2018-11-05T10:12:54.848Z,9.42
2018-11-05T10:15:25.203Z,9.44
2018-11-05T10:17:54.987Z,9.42
2018-11-05T10:20:25.125Z,9.44
2018-11-05T10:22:54.951Z,9.44
2018-11-05T10:25:24.138Z,9.47
2018-11-05T10:27:53.957Z,9.49
2018-11-05T10:30:24.184Z,9.53
2018-11-05T10:32:54.081Z,9.56
2018-11-05T10:35:27.813Z,9.59
2018-11-05T10:37:56.692Z,9.62
2018-11-05T10:40:25.746Z,9.63
2018-11-05T10:42:55.342Z,9.64
2018-11-05T10:45:24.886Z,9.67
2018-11-05T10:47:55.366Z,9.68
2018-11-05T10:50:25.561Z,9.70
2018-11-05T10:52:54.702Z,9.73
2018-11-05T10:55:23.959Z,9.76
2018-11-05T10:57:55.238Z,9.79
2018-11-05T11:00:30.632Z,9.82
2018-11-05T11:03:04.490Z,9.86
2018-11-05T11:06:05.795Z,9.89
2018-11-05T11:08:34.612Z,9.92
2018-11-05T11:11:04.138Z,9.95
2018-11-05T11:13:33.794Z,9.97
2018-11-05T11:16:02.646Z,10.04
2018-11-05T11:18:31.550Z,10.08
2018-11-05T11:21:00.558Z,10.09
2018-11-05T11:23:29.390Z,10.12
2018-11-05T11:25:58.482Z,10.16
2018-11-05T11:28:27.386Z,10.22
2018-11-05T11:30:56.286Z,10.27
2018-11-05T11:33:26.673Z,10.34
2018-11-05T11:35:56.185Z,10.39
2018-11-05T11:38:25.753Z,10.41
2018-11-05T11:40:55.289Z,10.44
2018-11-05T11:43:25.816Z,10.48
2018-11-05T11:45:55.542Z,10.55
2018-11-05T11:48:26.055Z,10.62
2018-11-05T11:50:57.559Z,10.68
2018-11-05T11:53:26.715Z,10.77
2018-11-05T11:55:55.801Z,10.83
2018-11-05T11:58:25.590Z,10.88
2018-11-05T12:00:56.124Z,10.94
2018-11-05T12:03:26.543Z,11.01
2018-11-05T12:05:55.827Z,11.05
2018-11-05T12:08:25.424Z,11.12
2018-11-05T12:10:55.863Z,11.17
2018-11-05T12:13:27.008Z,11.19
2018-11-05T12:15:56.225Z,11.21
2018-11-05T12:18:25.858Z,11.24
2018-11-05T12:20:55.320Z,11.28
2018-11-05T12:23:24.951Z,11.26
2018-11-05T12:25:54.939Z,11.25
2018-11-05T12:28:25.116Z,11.23
2018-11-05T12:31:03.716Z,11.25
2018-11-05T12:33:33.390Z,11.23
2018-11-05T12:36:02.354Z,11.20
2018-11-05T12:38:31.322Z,11.20
2018-11-05T12:41:01.077Z,11.20
2018-11-05T12:43:30.662Z,11.19
2018-11-05T12:46:04.648Z,11.17
2018-11-05T12:48:34.109Z,11.16
2018-11-05T12:51:03.716Z,11.14
2018-11-05T12:53:32.613Z,11.14
2018-11-05T12:56:01.570Z,11.08
2018-11-05T12:58:30.655Z,11.07
2018-11-05T13:01:00.428Z,10.98
2018-11-05T13:03:30.006Z,11.01
2018-11-05T13:05:59.133Z,10.99
2018-11-05T13:08:28.528Z,11.01
2018-11-05T13:10:58.420Z,10.97
2018-11-05T13:13:27.405Z,10.97
2018-11-05T13:15:56.378Z,10.96
2018-11-05T13:18:25.557Z,10.96
2018-11-05T13:20:54.856Z,10.95
2018-11-05T13:23:32.359Z,10.96
2018-11-05T13:26:01.564Z,10.99
2018-11-05T13:28:30.603Z,10.97
2018-11-05T13:30:59.707Z,10.97
2018-11-05T13:33:29.586Z,10.96
2018-11-05T13:35:58.652Z,10.94
2018-11-05T13:38:27.698Z,10.90
2018-11-05T13:40:56.767Z,10.89
2018-11-05T13:43:26.530Z,10.90
2018-11-05T13:45:56.177Z,10.89
2018-11-05T13:48:26.673Z,10.88
2018-11-05T13:50:56.451Z,10.89
2018-11-05T13:53:25.855Z,10.91
2018-11-05T13:55:56.027Z,10.91
2018-11-05T13:58:26.216Z,10.89
2018-11-05T14:00:56.617Z,10.88
2018-11-05T14:03:26.348Z,10.88
2018-11-05T14:05:57.353Z,10.88
2018-11-05T14:08:26.301Z,10.87
2018-11-05T14:10:56.199Z,10.87
2018-11-05T14:13:26.114Z,10.87
2018-11-05T14:15:55.707Z,10.87
2018-11-05T14:18:25.561Z,10.85
2018-11-05T14:20:55.289Z,10.82
2018-11-05T14:23:24.890Z,10.83
2018-11-05T14:25:55.075Z,10.82
2018-11-05T14:28:25.142Z,10.83
2018-11-05T14:30:55.115Z,10.87
2018-11-05T14:33:25.553Z,10.91
2018-11-05T14:35:54.952Z,10.93
2018-11-05T14:38:25.041Z,10.95
2018-11-05T14:40:54.517Z,10.93
2018-11-05T14:43:24.960Z,10.93
2018-11-05T14:45:54.441Z,10.88
2018-11-05T14:48:25.172Z,10.89
2018-11-05T14:50:55.087Z,10.84
2018-11-05T14:53:24.536Z,10.81
2018-11-05T14:55:53.975Z,10.78
2018-11-05T14:58:24.099Z,10.74
2018-11-05T15:00:54.694Z,10.69
2018-11-05T15:03:24.992Z,10.68
2018-11-05T15:05:54.967Z,10.64
2018-11-05T15:08:24.017Z,10.62
2018-11-05T15:10:53.687Z,10.61
2018-11-05T15:13:24.400Z,10.58
2018-11-05T15:15:54.289Z,10.56
2018-11-05T15:18:25.453Z,10.55
2018-11-05T15:20:55.067Z,10.53
2018-11-05T15:23:24.873Z,10.49
2018-11-05T15:25:54.526Z,10.46
2018-11-05T15:28:23.940Z,10.46
2018-11-05T15:30:53.266Z,10.48
2018-11-05T15:33:23.045Z,10.47
2018-11-05T15:35:52.094Z,10.47
2018-11-05T15:38:21.150Z,10.47
2018-11-05T15:40:50.066Z,10.44
2018-11-05T15:43:19.816Z,10.44
2018-11-05T15:45:49.012Z,10.44
2018-11-05T15:48:18.692Z,10.42
2018-11-05T15:50:48.569Z,10.45
2018-11-05T15:53:17.868Z,10.47
2018-11-05T15:55:46.690Z,10.49
2018-11-05T15:58:15.672Z,10.51
2018-11-05T16:00:45.211Z,10.52
2018-11-05T16:03:15.139Z,10.53
2018-11-05T16:05:44.076Z,10.52
2018-11-05T16:08:12.940Z,10.50
2018-11-05T16:10:42.591Z,10.48
2018-11-05T16:13:11.450Z,10.48
2018-11-05T16:16:43.476Z,10.45
2018-11-05T16:19:12.975Z,10.45
2018-11-05T16:21:41.826Z,10.42
2018-11-05T16:24:10.594Z,10.41
2018-11-05T16:26:40.056Z,10.42
2018-11-05T16:29:08.883Z,10.39
2018-11-05T16:31:38.339Z,10.38
2018-11-05T16:34:07.232Z,10.37
2018-11-05T16:36:36.854Z,10.37
2018-11-05T16:39:09.350Z,10.38
2018-11-05T16:41:38.653Z,10.36
2018-11-05T16:44:07.754Z,10.37
2018-11-05T16:46:36.643Z,10.37
2018-11-05T16:49:06.281Z,10.37
2018-11-05T16:51:36.347Z,10.35
2018-11-05T16:54:11.279Z,10.31
2018-11-05T16:56:40.222Z,10.29
2018-11-05T16:59:09.869Z,10.26
2018-11-05T17:01:39.578Z,10.23
2018-11-05T17:04:09.300Z,10.21
2018-11-05T17:06:38.266Z,10.19
2018-11-05T17:09:09.824Z,10.19
2018-11-05T17:11:39.349Z,10.18
2018-11-05T17:14:08.622Z,10.17
2018-11-05T17:16:38.635Z,10.15
2018-11-05T17:19:08.200Z,10.16
2018-11-05T17:21:37.017Z,10.15
2018-11-05T17:24:06.229Z,10.14
2018-11-05T17:26:35.235Z,10.15
2018-11-05T17:29:04.107Z,10.15
2018-11-05T17:31:34.010Z,10.13
2018-11-05T17:34:03.289Z,10.12
2018-11-05T17:36:32.117Z,10.11
2018-11-05T17:39:01.205Z,10.12
2018-11-05T17:41:30.016Z,10.12
2018-11-05T17:43:59.106Z,10.11
2018-11-05T17:46:27.957Z,10.11
2018-11-05T17:48:58.220Z,10.10
2018-11-05T17:51:27.910Z,10.10
2018-11-05T17:53:57.331Z,10.12
2018-11-05T17:56:27.184Z,10.14
2018-11-05T17:58:56.184Z,10.15
2018-11-05T18:01:26.585Z,10.15
2018-11-05T18:03:57.212Z,10.15
2018-11-05T18:06:26.094Z,10.12
2018-11-05T18:08:55.423Z,10.09
2018-11-05T18:11:25.315Z,10.06
2018-11-05T18:13:56.066Z,10.05
2018-11-05T18:16:25.875Z,10.05
2018-11-05T18:18:55.988Z,10.05
2018-11-05T18:21:26.915Z,10.06
2018-11-05T18:23:56.705Z,10.09
2018-11-05T18:26:26.014Z,10.13
2018-11-05T18:28:59.664Z,10.15
2018-11-05T18:31:29.650Z,10.16
2018-11-05T18:33:58.494Z,10.18
2018-11-05T18:36:27.326Z,10.20
2018-11-05T18:38:56.921Z,10.18
2018-11-05T18:41:25.862Z,10.16
2018-11-05T18:43:59.321Z,10.15
2018-11-05T18:46:28.124Z,10.10
2018-11-05T18:48:57.486Z,10.09
2018-11-05T18:51:28.184Z,10.08
2018-11-05T18:53:57.362Z,10.08
2018-11-05T18:56:26.892Z,10.09
2018-11-05T18:58:56.103Z,10.06
2018-11-05T19:01:27.493Z,10.07
2018-11-05T19:03:56.825Z,10.06
2018-11-05T19:06:26.547Z,10.06
2018-11-05T19:08:57.131Z,10.10
2018-11-05T19:11:27.887Z,10.12
2018-11-05T19:13:57.746Z,10.14
2018-11-05T19:16:27.629Z,10.16
2018-11-05T19:18:57.357Z,10.19
2018-11-05T19:21:26.925Z,10.21
2018-11-05T19:23:56.133Z,10.21
2018-11-05T19:26:25.992Z,10.22
2018-11-05T19:28:56.299Z,10.22
2018-11-05T19:31:26.292Z,10.20
2018-11-05T19:33:55.839Z,10.18
2018-11-05T19:36:25.863Z,10.17
2018-11-05T19:38:55.049Z,10.20
2018-11-05T19:41:25.040Z,10.21
2018-11-05T19:43:56.823Z,10.25
2018-11-05T19:46:25.836Z,10.25
2018-11-05T19:48:57.627Z,10.23
2018-11-05T19:51:27.215Z,10.20
2018-11-05T19:53:56.903Z,10.18
2018-11-05T19:56:27.846Z,10.16
2018-11-05T19:58:56.670Z,10.14
2018-11-05T20:01:30.351Z,10.10
2018-11-05T20:03:59.989Z,10.10
2018-11-05T20:06:28.806Z,10.06
2018-11-05T20:08:57.616Z,10.01
2018-11-05T20:11:27.250Z,10.00
2018-11-05T20:13:56.979Z,10.03
2018-11-05T20:16:28.735Z,9.97
2018-11-05T20:18:58.216Z,9.97
2018-11-05T20:21:27.515Z,10.00
2018-11-05T20:23:56.313Z,10.02
2018-11-05T20:26:25.711Z,10.05
2018-11-05T20:28:55.358Z,10.05
2018-11-05T20:31:28.656Z,10.04
2018-11-05T20:33:57.558Z,10.06
2018-11-05T20:36:27.240Z,10.10
2018-11-05T20:38:56.114Z,10.12
2018-11-05T20:41:25.542Z,10.13
2018-11-05T20:43:55.056Z,10.14
2018-11-05T20:46:25.146Z,10.15
2018-11-05T20:48:55.190Z,10.19
2018-11-05T20:51:28.168Z,10.23
2018-11-05T20:53:57.162Z,10.29
2018-11-05T20:56:26.195Z,10.31
2018-11-05T20:58:55.880Z,10.32
2018-11-05T21:01:26.200Z,10.32
2018-11-05T21:03:56.494Z,10.30
2018-11-05T21:06:25.669Z,10.30
2018-11-05T21:08:55.494Z,10.30
2018-11-05T21:11:26.303Z,10.33
2018-11-05T21:13:56.640Z,10.36
2018-11-05T21:16:26.747Z,10.38
2018-11-05T21:18:56.169Z,10.38
2018-11-05T21:21:25.881Z,10.38
2018-11-05T21:23:55.473Z,10.34
2018-11-05T21:26:26.593Z,10.35
2018-11-05T21:28:55.759Z,10.33
2018-11-05T21:31:26.548Z,10.31
2018-11-05T21:36:25.618Z,10.33
2018-11-05T21:38:54.842Z,10.38
2018-11-05T21:41:26.279Z,10.34
2018-11-05T21:43:56.661Z,10.23
2018-11-05T21:46:25.585Z,10.29
2018-11-05T21:48:55.876Z,10.29
2018-11-05T21:51:26.265Z,10.27
2018-11-05T21:53:55.659Z,10.28
2018-11-05T21:56:24.966Z,10.23
2018-11-05T21:58:54.187Z,10.19
2018-11-05T22:01:25.865Z,10.15
2018-11-05T22:03:56.443Z,10.13
2018-11-05T22:06:26.055Z,10.10
2018-11-05T22:08:55.223Z,10.11
2018-11-05T22:11:26.127Z,10.10
2018-11-05T22:13:56.507Z,10.07
2018-11-05T22:16:26.198Z,10.11
2018-11-05T22:18:56.279Z,10.09
2018-11-05T22:21:25.869Z,10.11
2018-11-05T22:23:54.964Z,10.13
2018-11-05T22:26:24.835Z,10.14
2018-11-05T22:28:54.455Z,10.18
2018-11-05T22:31:25.677Z,10.18
2018-11-05T22:33:55.382Z,10.19
2018-11-05T22:36:25.251Z,10.19
2018-11-05T22:38:55.458Z,10.19
2018-11-05T22:41:24.848Z,10.19
2018-11-05T22:43:54.518Z,10.19
2018-11-05T22:46:25.352Z,10.20
2018-11-05T22:48:55.656Z,10.23
2018-11-05T22:51:25.337Z,10.26
2018-11-05T22:53:55.191Z,10.29
2018-11-05T22:56:25.184Z,10.35
2018-11-05T22:58:54.642Z,10.39
2018-11-05T23:01:30.320Z,10.39
2018-11-05T23:04:03.381Z,10.40
2018-11-05T23:06:33.322Z,10.44
2018-11-05T23:09:02.316Z,10.45
2018-11-05T23:11:31.923Z,10.47
2018-11-05T23:14:01.495Z,10.48
2018-11-05T23:16:31.241Z,10.49
2018-11-05T23:19:00.752Z,10.48
2018-11-05T23:21:29.689Z,10.47
2018-11-05T23:23:59.258Z,10.48
2018-11-05T23:26:28.344Z,10.46
2018-11-05T23:28:58.587Z,10.38
2018-11-05T23:31:28.605Z,10.36
2018-11-05T23:33:57.831Z,10.35
2018-11-05T23:36:26.855Z,10.36
2018-11-05T23:38:57.807Z,10.33
2018-11-05T23:41:26.761Z,10.34
2018-11-05T23:43:56.495Z,10.36
2018-11-05T23:46:25.876Z,10.34
2018-11-05T23:48:56.454Z,10.34
2018-11-05T23:51:26.452Z,10.34
2018-11-05T23:54:05.700Z,10.35
2018-11-05T23:56:34.755Z,10.36
2018-11-05T23:59:07.650Z,10.34
